sensor_id;sensor_type;location;lat;lon;timestamp;P1;durP1;ratioP1;P2;durP2;ratioP2
28174;SDS011;59417;44.788;10.334;2022-10-23T00:01:19;39.05;;;30.02;;
28174;SDS011;59417;44.788;10.334;2022-10-23T00:03:47;43.35;;;30.05;;
28174;SDS011;59417;44.788;10.334;2022-10-23T00:06:15;43.60;;;31.17;;
28174;SDS011;59417;44.788;10.334;2022-10-23T00:08:42;54.30;;;31.63;;
28174;SDS011;59417;44.788;10.334;2022-10-23T00:11:08;43.35;;;31.67;;
28174;SDS011;59417;44.788;10.334;2022-10-23T00:13:35;47.47;;;31.67;;
28174;SDS011;59417;44.788;10.334;2022-10-23T00:16:01;42.90;;;30.30;;
28174;SDS011;59417;44.788;10.334;2022-10-23T00:18:27;43.90;;;31.90;;
28174;SDS011;59417;44.788;10.334;2022-10-23T00:20:53;44.28;;;29.77;;
28174;SDS011;59417;44.788;10.334;2022-10-23T00:23:18;47.50;;;29.75;;
28174;SDS011;59417;44.788;10.334;2022-10-23T00:25:44;43.53;;;29.15;;
28174;SDS011;59417;44.788;10.334;2022-10-23T00:28:09;40.97;;;29.30;;
28174;SDS011;59417;44.788;10.334;2022-10-23T00:30:35;40.58;;;29.55;;
28174;SDS011;59417;44.788;10.334;2022-10-23T00:33:01;45.40;;;29.02;;
28174;SDS011;59417;44.788;10.334;2022-10-23T00:35:26;39.05;;;28.23;;
28174;SDS011;59417;44.788;10.334;2022-10-23T00:37:52;41.65;;;29.15;;
28174;SDS011;59417;44.788;10.334;2022-10-23T00:40:18;42.60;;;28.95;;
28174;SDS011;59417;44.788;10.334;2022-10-23T00:42:43;36.88;;;28.17;;
28174;SDS011;59417;44.788;10.334;2022-10-23T00:47:43;42.47;;;28.77;;
28174;SDS011;59417;44.788;10.334;2022-10-23T00:50:09;43.58;;;28.13;;
28174;SDS011;59417;44.788;10.334;2022-10-23T00:52:36;42.03;;;28.05;;
28174;SDS011;59417;44.788;10.334;2022-10-23T00:55:07;35.22;;;26.98;;
28174;SDS011;59417;44.788;10.334;2022-10-23T00:57:32;39.05;;;27.40;;
28174;SDS011;59417;44.788;10.334;2022-10-23T00:59:58;34.67;;;25.60;;
28174;SDS011;59417;44.788;10.334;2022-10-23T01:02:24;41.55;;;26.85;;
28174;SDS011;59417;44.788;10.334;2022-10-23T01:04:49;39.80;;;25.98;;
28174;SDS011;59417;44.788;10.334;2022-10-23T01:07:21;34.60;;;26.65;;
28174;SDS011;59417;44.788;10.334;2022-10-23T01:10:08;37.50;;;27.30;;
28174;SDS011;59417;44.788;10.334;2022-10-23T01:18:12;34.33;;;27.70;;
28174;SDS011;59417;44.788;10.334;2022-10-23T01:20:49;38.60;;;27.15;;
28174;SDS011;59417;44.788;10.334;2022-10-23T01:23:28;39.55;;;26.45;;
28174;SDS011;59417;44.788;10.334;2022-10-23T01:28:31;37.13;;;26.00;;
28174;SDS011;59417;44.788;10.334;2022-10-23T01:31:03;35.78;;;26.17;;
28174;SDS011;59417;44.788;10.334;2022-10-23T01:33:38;32.35;;;25.70;;
28174;SDS011;59417;44.788;10.334;2022-10-23T01:36:11;35.67;;;26.20;;
28174;SDS011;59417;44.788;10.334;2022-10-23T01:38:40;38.08;;;25.48;;
28174;SDS011;59417;44.788;10.334;2022-10-23T01:41:38;42.15;;;29.65;;
28174;SDS011;59417;44.788;10.334;2022-10-23T01:47:15;32.92;;;24.50;;
28174;SDS011;59417;44.788;10.334;2022-10-23T01:50:03;33.95;;;25.27;;
28174;SDS011;59417;44.788;10.334;2022-10-23T01:52:32;33.45;;;26.17;;
28174;SDS011;59417;44.788;10.334;2022-10-23T01:54:59;38.97;;;26.50;;
28174;SDS011;59417;44.788;10.334;2022-10-23T01:57:29;32.40;;;25.08;;
28174;SDS011;59417;44.788;10.334;2022-10-23T02:00:03;35.28;;;24.73;;
28174;SDS011;59417;44.788;10.334;2022-10-23T02:02:49;31.60;;;24.02;;
28174;SDS011;59417;44.788;10.334;2022-10-23T02:05:18;30.55;;;22.80;;
28174;SDS011;59417;44.788;10.334;2022-10-23T02:07:47;34.75;;;23.92;;
28174;SDS011;59417;44.788;10.334;2022-10-23T02:10:14;29.63;;;22.67;;
28174;SDS011;59417;44.788;10.334;2022-10-23T02:18:01;33.35;;;21.92;;
28174;SDS011;59417;44.788;10.334;2022-10-23T02:20:45;35.40;;;23.50;;
28174;SDS011;59417;44.788;10.334;2022-10-23T02:23:19;31.50;;;21.75;;
28174;SDS011;59417;44.788;10.334;2022-10-23T02:26:11;29.75;;;21.95;;
28174;SDS011;59417;44.788;10.334;2022-10-23T02:28:47;28.13;;;20.50;;
28174;SDS011;59417;44.788;10.334;2022-10-23T02:31:18;27.83;;;20.20;;
28174;SDS011;59417;44.788;10.334;2022-10-23T02:33:46;29.10;;;20.47;;
28174;SDS011;59417;44.788;10.334;2022-10-23T02:36:13;28.27;;;20.73;;
28174;SDS011;59417;44.788;10.334;2022-10-23T02:38:40;28.92;;;22.35;;
28174;SDS011;59417;44.788;10.334;2022-10-23T02:58:09;33.63;;;23.23;;
28174;SDS011;59417;44.788;10.334;2022-10-23T03:00:43;31.73;;;22.58;;
28174;SDS011;59417;44.788;10.334;2022-10-23T03:03:14;33.72;;;21.77;;
28174;SDS011;59417;44.788;10.334;2022-10-23T03:05:47;32.42;;;23.45;;
28174;SDS011;59417;44.788;10.334;2022-10-23T03:08:13;32.47;;;22.95;;
28174;SDS011;59417;44.788;10.334;2022-10-23T03:10:40;35.28;;;23.45;;
28174;SDS011;59417;44.788;10.334;2022-10-23T03:13:06;30.42;;;23.27;;
28174;SDS011;59417;44.788;10.334;2022-10-23T03:15:39;33.65;;;24.02;;
28174;SDS011;59417;44.788;10.334;2022-10-23T03:18:08;33.92;;;23.25;;
28174;SDS011;59417;44.788;10.334;2022-10-23T03:20:34;30.70;;;22.42;;
28174;SDS011;59417;44.788;10.334;2022-10-23T03:23:00;29.67;;;22.88;;
28174;SDS011;59417;44.788;10.334;2022-10-23T03:25:26;28.85;;;21.88;;
28174;SDS011;59417;44.788;10.334;2022-10-23T03:27:56;32.05;;;23.63;;
28174;SDS011;59417;44.788;10.334;2022-10-23T03:30:21;27.67;;;23.40;;
28174;SDS011;59417;44.788;10.334;2022-10-23T03:32:52;37.83;;;25.35;;
28174;SDS011;59417;44.788;10.334;2022-10-23T03:35:17;35.63;;;25.10;;
28174;SDS011;59417;44.788;10.334;2022-10-23T03:37:43;38.28;;;26.50;;
28174;SDS011;59417;44.788;10.334;2022-10-23T03:40:09;33.60;;;25.95;;
28174;SDS011;59417;44.788;10.334;2022-10-23T03:42:35;35.80;;;26.40;;
28174;SDS011;59417;44.788;10.334;2022-10-23T03:45:00;36.70;;;27.08;;
28174;SDS011;59417;44.788;10.334;2022-10-23T03:47:26;38.63;;;28.95;;
28174;SDS011;59417;44.788;10.334;2022-10-23T03:49:52;39.00;;;29.15;;
28174;SDS011;59417;44.788;10.334;2022-10-23T03:52:17;43.25;;;28.40;;
28174;SDS011;59417;44.788;10.334;2022-10-23T03:54:43;41.72;;;28.38;;
28174;SDS011;59417;44.788;10.334;2022-10-23T03:57:09;34.08;;;25.88;;
28174;SDS011;59417;44.788;10.334;2022-10-23T03:59:34;47.10;;;30.15;;
28174;SDS011;59417;44.788;10.334;2022-10-23T04:02:03;44.97;;;29.88;;
28174;SDS011;59417;44.788;10.334;2022-10-23T04:04:29;41.97;;;29.42;;
28174;SDS011;59417;44.788;10.334;2022-10-23T04:06:54;46.10;;;31.23;;
28174;SDS011;59417;44.788;10.334;2022-10-23T04:09:20;45.47;;;30.92;;
28174;SDS011;59417;44.788;10.334;2022-10-23T04:11:46;55.35;;;30.10;;
28174;SDS011;59417;44.788;10.334;2022-10-23T04:14:12;50.95;;;33.90;;
28174;SDS011;59417;44.788;10.334;2022-10-23T04:16:38;56.40;;;35.42;;
28174;SDS011;59417;44.788;10.334;2022-10-23T04:19:04;59.47;;;36.28;;
28174;SDS011;59417;44.788;10.334;2022-10-23T04:21:30;52.80;;;33.67;;
28174;SDS011;59417;44.788;10.334;2022-10-23T04:23:56;55.30;;;35.45;;
28174;SDS011;59417;44.788;10.334;2022-10-23T04:26:22;58.95;;;36.15;;
28174;SDS011;59417;44.788;10.334;2022-10-23T04:28:47;56.78;;;37.15;;
28174;SDS011;59417;44.788;10.334;2022-10-23T04:31:14;58.38;;;36.88;;
28174;SDS011;59417;44.788;10.334;2022-10-23T04:33:41;62.65;;;37.38;;
28174;SDS011;59417;44.788;10.334;2022-10-23T04:36:07;63.38;;;39.13;;
28174;SDS011;59417;44.788;10.334;2022-10-23T04:38:34;62.10;;;39.45;;
28174;SDS011;59417;44.788;10.334;2022-10-23T04:41:00;60.95;;;37.72;;
28174;SDS011;59417;44.788;10.334;2022-10-23T04:43:27;60.30;;;38.67;;
28174;SDS011;59417;44.788;10.334;2022-10-23T04:45:53;64.18;;;39.75;;
28174;SDS011;59417;44.788;10.334;2022-10-23T04:48:19;64.20;;;40.17;;
28174;SDS011;59417;44.788;10.334;2022-10-23T04:51:08;58.83;;;39.90;;
28174;SDS011;59417;44.788;10.334;2022-10-23T04:53:52;56.08;;;38.75;;
28174;SDS011;59417;44.788;10.334;2022-10-23T04:56:28;61.55;;;39.80;;
28174;SDS011;59417;44.788;10.334;2022-10-23T04:59:00;63.40;;;40.28;;
28174;SDS011;59417;44.788;10.334;2022-10-23T05:01:27;73.68;;;40.90;;
28174;SDS011;59417;44.788;10.334;2022-10-23T05:03:52;65.45;;;40.92;;
28174;SDS011;59417;44.788;10.334;2022-10-23T05:06:21;62.90;;;40.38;;
28174;SDS011;59417;44.788;10.334;2022-10-23T05:08:52;60.20;;;38.83;;
28174;SDS011;59417;44.788;10.334;2022-10-23T05:11:33;67.97;;;41.47;;
28174;SDS011;59417;44.788;10.334;2022-10-23T05:14:04;68.85;;;41.47;;
28174;SDS011;59417;44.788;10.334;2022-10-23T05:19:04;68.03;;;39.58;;
28174;SDS011;59417;44.788;10.334;2022-10-23T05:21:33;59.45;;;39.38;;
28174;SDS011;59417;44.788;10.334;2022-10-23T05:24:04;65.95;;;41.35;;
28174;SDS011;59417;44.788;10.334;2022-10-23T05:26:30;66.53;;;42.33;;
28174;SDS011;59417;44.788;10.334;2022-10-23T05:29:01;77.10;;;43.45;;
28174;SDS011;59417;44.788;10.334;2022-10-23T05:31:27;74.20;;;41.72;;
28174;SDS011;59417;44.788;10.334;2022-10-23T05:34:00;72.80;;;43.75;;
28174;SDS011;59417;44.788;10.334;2022-10-23T05:36:25;71.40;;;43.30;;
28174;SDS011;59417;44.788;10.334;2022-10-23T05:38:55;67.32;;;42.63;;
28174;SDS011;59417;44.788;10.334;2022-10-23T05:41:21;68.40;;;40.80;;
28174;SDS011;59417;44.788;10.334;2022-10-23T05:43:47;70.18;;;42.08;;
28174;SDS011;59417;44.788;10.334;2022-10-23T05:46:31;69.47;;;41.30;;
28174;SDS011;59417;44.788;10.334;2022-10-23T05:49:11;82.90;;;44.83;;
28174;SDS011;59417;44.788;10.334;2022-10-23T05:51:56;73.10;;;41.28;;
28174;SDS011;59417;44.788;10.334;2022-10-23T05:54:50;67.80;;;41.22;;
28174;SDS011;59417;44.788;10.334;2022-10-23T05:57:35;72.95;;;41.00;;
28174;SDS011;59417;44.788;10.334;2022-10-23T06:00:05;66.10;;;40.53;;
28174;SDS011;59417;44.788;10.334;2022-10-23T06:02:40;57.88;;;35.03;;
28174;SDS011;59417;44.788;10.334;2022-10-23T06:05:26;58.40;;;37.88;;
28174;SDS011;59417;44.788;10.334;2022-10-23T06:08:15;67.57;;;38.95;;
28174;SDS011;59417;44.788;10.334;2022-10-23T06:10:41;57.95;;;38.92;;
28174;SDS011;59417;44.788;10.334;2022-10-23T06:13:08;60.92;;;37.35;;
28174;SDS011;59417;44.788;10.334;2022-10-23T06:15:35;59.83;;;37.72;;
28174;SDS011;59417;44.788;10.334;2022-10-23T06:18:16;60.22;;;37.90;;
28174;SDS011;59417;44.788;10.334;2022-10-23T06:21:04;66.28;;;37.50;;
28174;SDS011;59417;44.788;10.334;2022-10-23T06:23:31;68.57;;;40.50;;
28174;SDS011;59417;44.788;10.334;2022-10-23T06:26:08;68.95;;;40.65;;
28174;SDS011;59417;44.788;10.334;2022-10-23T06:28:57;72.35;;;41.22;;
28174;SDS011;59417;44.788;10.334;2022-10-23T06:31:24;73.57;;;41.80;;
28174;SDS011;59417;44.788;10.334;2022-10-23T06:33:54;63.90;;;37.97;;
28174;SDS011;59417;44.788;10.334;2022-10-23T06:36:21;60.65;;;37.20;;
28174;SDS011;59417;44.788;10.334;2022-10-23T06:38:49;63.47;;;39.95;;
28174;SDS011;59417;44.788;10.334;2022-10-23T06:41:17;59.80;;;38.42;;
28174;SDS011;59417;44.788;10.334;2022-10-23T06:43:50;57.35;;;37.67;;
28174;SDS011;59417;44.788;10.334;2022-10-23T06:46:25;54.90;;;36.10;;
28174;SDS011;59417;44.788;10.334;2022-10-23T06:49:26;54.15;;;36.72;;
28174;SDS011;59417;44.788;10.334;2022-10-23T06:51:53;59.47;;;36.67;;
28174;SDS011;59417;44.788;10.334;2022-10-23T06:54:21;57.85;;;36.88;;
28174;SDS011;59417;44.788;10.334;2022-10-23T06:57:06;57.35;;;35.67;;
28174;SDS011;59417;44.788;10.334;2022-10-23T06:59:40;56.45;;;37.22;;
28174;SDS011;59417;44.788;10.334;2022-10-23T07:02:08;59.95;;;39.30;;
28174;SDS011;59417;44.788;10.334;2022-10-23T07:04:34;56.28;;;37.20;;
28174;SDS011;59417;44.788;10.334;2022-10-23T07:07:03;55.58;;;37.72;;
28174;SDS011;59417;44.788;10.334;2022-10-23T07:09:38;53.47;;;36.08;;
28174;SDS011;59417;44.788;10.334;2022-10-23T07:12:26;55.67;;;37.47;;
28174;SDS011;59417;44.788;10.334;2022-10-23T07:15:12;55.85;;;36.55;;
28174;SDS011;59417;44.788;10.334;2022-10-23T07:17:38;59.83;;;37.30;;
28174;SDS011;59417;44.788;10.334;2022-10-23T07:20:04;55.47;;;36.40;;
28174;SDS011;59417;44.788;10.334;2022-10-23T07:22:30;58.35;;;36.72;;
28174;SDS011;59417;44.788;10.334;2022-10-23T07:25:16;53.45;;;37.00;;
28174;SDS011;59417;44.788;10.334;2022-10-23T07:27:43;46.92;;;33.15;;
28174;SDS011;59417;44.788;10.334;2022-10-23T07:30:09;50.97;;;36.47;;
28174;SDS011;59417;44.788;10.334;2022-10-23T07:32:49;51.97;;;34.80;;
28174;SDS011;59417;44.788;10.334;2022-10-23T07:35:41;50.30;;;36.00;;
28174;SDS011;59417;44.788;10.334;2022-10-23T07:38:12;48.05;;;33.97;;
28174;SDS011;59417;44.788;10.334;2022-10-23T07:40:43;55.33;;;35.70;;
28174;SDS011;59417;44.788;10.334;2022-10-23T07:43:12;54.15;;;32.92;;
28174;SDS011;59417;44.788;10.334;2022-10-23T07:45:37;45.10;;;32.45;;
28174;SDS011;59417;44.788;10.334;2022-10-23T07:48:14;49.08;;;32.58;;
28174;SDS011;59417;44.788;10.334;2022-10-23T07:50:57;51.03;;;34.30;;
28174;SDS011;59417;44.788;10.334;2022-10-23T07:53:28;49.05;;;31.33;;
28174;SDS011;59417;44.788;10.334;2022-10-23T07:56:03;47.90;;;30.63;;
28174;SDS011;59417;44.788;10.334;2022-10-23T07:58:56;43.55;;;29.40;;
28174;SDS011;59417;44.788;10.334;2022-10-23T08:03:58;41.03;;;28.65;;
28174;SDS011;59417;44.788;10.334;2022-10-23T08:06:25;42.53;;;30.08;;
28174;SDS011;59417;44.788;10.334;2022-10-23T08:08:57;42.13;;;29.75;;
28174;SDS011;59417;44.788;10.334;2022-10-23T08:12:05;41.67;;;28.77;;
28174;SDS011;59417;44.788;10.334;2022-10-23T08:14:49;41.90;;;30.05;;
28174;SDS011;59417;44.788;10.334;2022-10-23T08:17:15;45.30;;;31.30;;
28174;SDS011;59417;44.788;10.334;2022-10-23T08:20:13;43.80;;;31.10;;
28174;SDS011;59417;44.788;10.334;2022-10-23T08:22:40;51.20;;;30.90;;
28174;SDS011;59417;44.788;10.334;2022-10-23T08:25:07;42.25;;;31.23;;
28174;SDS011;59417;44.788;10.334;2022-10-23T08:27:33;39.53;;;29.80;;
28174;SDS011;59417;44.788;10.334;2022-10-23T08:29:58;43.58;;;30.67;;
28174;SDS011;59417;44.788;10.334;2022-10-23T08:32:28;44.70;;;31.85;;
28174;SDS011;59417;44.788;10.334;2022-10-23T08:34:58;45.40;;;32.55;;
28174;SDS011;59417;44.788;10.334;2022-10-23T08:37:27;47.83;;;29.95;;
28174;SDS011;59417;44.788;10.334;2022-10-23T08:39:52;44.95;;;31.58;;
28174;SDS011;59417;44.788;10.334;2022-10-23T08:43:00;44.75;;;29.80;;
28174;SDS011;59417;44.788;10.334;2022-10-23T08:46:16;40.58;;;29.58;;
28174;SDS011;59417;44.788;10.334;2022-10-23T08:48:49;56.38;;;35.83;;
28174;SDS011;59417;44.788;10.334;2022-10-23T08:51:43;84.43;;;42.45;;
28174;SDS011;59417;44.788;10.334;2022-10-23T08:56:40;75.68;;;38.72;;
28174;SDS011;59417;44.788;10.334;2022-10-23T08:59:16;66.28;;;37.63;;
28174;SDS011;59417;44.788;10.334;2022-10-23T09:01:52;82.03;;;43.78;;
28174;SDS011;59417;44.788;10.334;2022-10-23T09:04:22;60.45;;;37.33;;
28174;SDS011;59417;44.788;10.334;2022-10-23T09:12:08;67.53;;;38.70;;
28174;SDS011;59417;44.788;10.334;2022-10-23T09:17:25;53.50;;;33.28;;
28174;SDS011;59417;44.788;10.334;2022-10-23T09:23:20;56.08;;;37.80;;
28174;SDS011;59417;44.788;10.334;2022-10-23T09:25:45;55.78;;;37.90;;
28174;SDS011;59417;44.788;10.334;2022-10-23T09:28:19;52.15;;;36.33;;
28174;SDS011;59417;44.788;10.334;2022-10-23T09:30:50;55.40;;;36.47;;
28174;SDS011;59417;44.788;10.334;2022-10-23T09:36:05;52.53;;;37.28;;
28174;SDS011;59417;44.788;10.334;2022-10-23T09:41:10;58.22;;;38.92;;
28174;SDS011;59417;44.788;10.334;2022-10-23T09:46:38;58.92;;;37.97;;
28174;SDS011;59417;44.788;10.334;2022-10-23T09:49:31;57.20;;;38.17;;
28174;SDS011;59417;44.788;10.334;2022-10-23T09:52:04;68.30;;;42.28;;
28174;SDS011;59417;44.788;10.334;2022-10-23T09:57:28;64.10;;;41.45;;
28174;SDS011;59417;44.788;10.334;2022-10-23T09:59:55;57.85;;;40.38;;
28174;SDS011;59417;44.788;10.334;2022-10-23T10:02:28;60.10;;;39.80;;
28174;SDS011;59417;44.788;10.334;2022-10-23T10:10:54;57.47;;;37.97;;
28174;SDS011;59417;44.788;10.334;2022-10-23T10:19:01;65.40;;;42.90;;
28174;SDS011;59417;44.788;10.334;2022-10-23T10:22:15;69.47;;;43.97;;
28174;SDS011;59417;44.788;10.334;2022-10-23T10:49:09;60.70;;;43.30;;
28174;SDS011;59417;44.788;10.334;2022-10-23T10:52:07;64.03;;;40.97;;
28174;SDS011;59417;44.788;10.334;2022-10-23T10:55:02;61.80;;;43.30;;
28174;SDS011;59417;44.788;10.334;2022-10-23T10:57:51;62.15;;;43.03;;
28174;SDS011;59417;44.788;10.334;2022-10-23T11:00:24;61.90;;;41.60;;
28174;SDS011;59417;44.788;10.334;2022-10-23T11:03:01;58.72;;;41.00;;
28174;SDS011;59417;44.788;10.334;2022-10-23T11:05:46;56.95;;;41.17;;
28174;SDS011;59417;44.788;10.334;2022-10-23T11:08:18;57.22;;;40.58;;
28174;SDS011;59417;44.788;10.334;2022-10-23T11:10:53;56.30;;;40.10;;
28174;SDS011;59417;44.788;10.334;2022-10-23T11:13:42;59.50;;;39.55;;
28174;SDS011;59417;44.788;10.334;2022-10-23T11:18:49;62.63;;;39.42;;
28174;SDS011;59417;44.788;10.334;2022-10-23T11:24:44;55.38;;;39.28;;
28174;SDS011;59417;44.788;10.334;2022-10-23T11:30:34;57.55;;;40.40;;
28174;SDS011;59417;44.788;10.334;2022-10-23T11:33:38;54.00;;;40.17;;
28174;SDS011;59417;44.788;10.334;2022-10-23T11:36:17;57.88;;;40.85;;
28174;SDS011;59417;44.788;10.334;2022-10-23T11:38:46;61.58;;;40.05;;
28174;SDS011;59417;44.788;10.334;2022-10-23T11:41:18;60.80;;;41.80;;
28174;SDS011;59417;44.788;10.334;2022-10-23T11:48:48;56.90;;;39.92;;
28174;SDS011;59417;44.788;10.334;2022-10-23T11:59:24;63.47;;;45.63;;
28174;SDS011;59417;44.788;10.334;2022-10-23T12:01:53;58.67;;;41.33;;
28174;SDS011;59417;44.788;10.334;2022-10-23T12:04:27;57.83;;;41.28;;
28174;SDS011;59417;44.788;10.334;2022-10-23T12:09:56;59.08;;;39.95;;
28174;SDS011;59417;44.788;10.334;2022-10-23T12:17:42;67.97;;;42.40;;
28174;SDS011;59417;44.788;10.334;2022-10-23T12:22:49;61.05;;;43.00;;
28174;SDS011;59417;44.788;10.334;2022-10-23T12:25:19;56.35;;;41.50;;
28174;SDS011;59417;44.788;10.334;2022-10-23T12:28:28;63.15;;;42.72;;
28174;SDS011;59417;44.788;10.334;2022-10-23T12:31:18;65.85;;;42.63;;
28174;SDS011;59417;44.788;10.334;2022-10-23T12:34:08;60.35;;;42.55;;
28174;SDS011;59417;44.788;10.334;2022-10-23T12:39:28;62.10;;;41.58;;
28174;SDS011;59417;44.788;10.334;2022-10-23T12:42:04;59.25;;;42.80;;
28174;SDS011;59417;44.788;10.334;2022-10-23T12:44:35;66.53;;;42.83;;
28174;SDS011;59417;44.788;10.334;2022-10-23T12:47:01;61.80;;;43.35;;
28174;SDS011;59417;44.788;10.334;2022-10-23T12:49:30;59.95;;;43.28;;
28174;SDS011;59417;44.788;10.334;2022-10-23T12:52:26;65.53;;;43.10;;
28174;SDS011;59417;44.788;10.334;2022-10-23T12:55:12;61.88;;;42.30;;
28174;SDS011;59417;44.788;10.334;2022-10-23T12:57:41;57.67;;;41.35;;
28174;SDS011;59417;44.788;10.334;2022-10-23T13:00:08;61.15;;;38.78;;
28174;SDS011;59417;44.788;10.334;2022-10-23T13:02:35;62.28;;;42.30;;
28174;SDS011;59417;44.788;10.334;2022-10-23T13:05:04;61.63;;;42.22;;
28174;SDS011;59417;44.788;10.334;2022-10-23T13:07:33;58.45;;;43.45;;
28174;SDS011;59417;44.788;10.334;2022-10-23T13:10:03;61.08;;;43.95;;
28174;SDS011;59417;44.788;10.334;2022-10-23T13:12:33;61.33;;;41.55;;
28174;SDS011;59417;44.788;10.334;2022-10-23T13:17:33;63.00;;;42.38;;
28174;SDS011;59417;44.788;10.334;2022-10-23T13:22:42;63.75;;;44.47;;
28174;SDS011;59417;44.788;10.334;2022-10-23T13:28:09;58.70;;;41.90;;
28174;SDS011;59417;44.788;10.334;2022-10-23T13:30:37;59.75;;;40.40;;
28174;SDS011;59417;44.788;10.334;2022-10-23T13:36:22;61.90;;;42.67;;
28174;SDS011;59417;44.788;10.334;2022-10-23T13:38:59;60.97;;;42.17;;
28174;SDS011;59417;44.788;10.334;2022-10-23T13:41:25;60.17;;;40.53;;
28174;SDS011;59417;44.788;10.334;2022-10-23T13:43:53;63.35;;;39.85;;
28174;SDS011;59417;44.788;10.334;2022-10-23T13:46:25;60.28;;;39.50;;
28174;SDS011;59417;44.788;10.334;2022-10-23T13:48:51;63.67;;;40.40;;
28174;SDS011;59417;44.788;10.334;2022-10-23T13:51:25;58.60;;;39.38;;
28174;SDS011;59417;44.788;10.334;2022-10-23T13:53:53;55.42;;;39.53;;
28174;SDS011;59417;44.788;10.334;2022-10-23T13:56:20;55.35;;;37.90;;
28174;SDS011;59417;44.788;10.334;2022-10-23T13:58:48;54.65;;;38.75;;
28174;SDS011;59417;44.788;10.334;2022-10-23T14:01:25;55.10;;;38.80;;
28174;SDS011;59417;44.788;10.334;2022-10-23T14:03:53;58.97;;;41.13;;
28174;SDS011;59417;44.788;10.334;2022-10-23T14:06:20;60.42;;;39.55;;
28174;SDS011;59417;44.788;10.334;2022-10-23T14:08:49;56.17;;;37.65;;
28174;SDS011;59417;44.788;10.334;2022-10-23T14:11:22;52.38;;;39.00;;
28174;SDS011;59417;44.788;10.334;2022-10-23T14:13:48;61.00;;;39.97;;
28174;SDS011;59417;44.788;10.334;2022-10-23T14:16:16;52.95;;;37.03;;
28174;SDS011;59417;44.788;10.334;2022-10-23T14:18:42;58.45;;;38.15;;
28174;SDS011;59417;44.788;10.334;2022-10-23T14:21:10;59.90;;;38.88;;
28174;SDS011;59417;44.788;10.334;2022-10-23T14:23:37;50.47;;;36.90;;
28174;SDS011;59417;44.788;10.334;2022-10-23T14:26:06;53.58;;;37.42;;
28174;SDS011;59417;44.788;10.334;2022-10-23T14:28:37;51.15;;;37.10;;
28174;SDS011;59417;44.788;10.334;2022-10-23T14:31:07;57.55;;;37.85;;
28174;SDS011;59417;44.788;10.334;2022-10-23T14:33:35;56.80;;;37.88;;
28174;SDS011;59417;44.788;10.334;2022-10-23T14:36:01;59.38;;;37.78;;
28174;SDS011;59417;44.788;10.334;2022-10-23T14:38:27;53.95;;;35.78;;
28174;SDS011;59417;44.788;10.334;2022-10-23T14:40:53;50.25;;;35.25;;
28174;SDS011;59417;44.788;10.334;2022-10-23T14:43:19;56.20;;;36.15;;
28174;SDS011;59417;44.788;10.334;2022-10-23T14:45:45;55.30;;;35.35;;
28174;SDS011;59417;44.788;10.334;2022-10-23T14:48:11;54.45;;;36.63;;
28174;SDS011;59417;44.788;10.334;2022-10-23T14:50:37;52.05;;;34.85;;
28174;SDS011;59417;44.788;10.334;2022-10-23T14:53:07;53.60;;;35.40;;
28174;SDS011;59417;44.788;10.334;2022-10-23T14:55:33;51.35;;;35.10;;
28174;SDS011;59417;44.788;10.334;2022-10-23T14:57:58;48.60;;;34.25;;
28174;SDS011;59417;44.788;10.334;2022-10-23T15:00:24;44.83;;;32.75;;
28174;SDS011;59417;44.788;10.334;2022-10-23T15:02:49;53.40;;;36.00;;
28174;SDS011;59417;44.788;10.334;2022-10-23T15:05:15;47.78;;;34.05;;
28174;SDS011;59417;44.788;10.334;2022-10-23T15:07:41;46.75;;;33.25;;
28174;SDS011;59417;44.788;10.334;2022-10-23T15:10:07;45.83;;;30.85;;
28174;SDS011;59417;44.788;10.334;2022-10-23T15:12:54;51.08;;;34.47;;
28174;SDS011;59417;44.788;10.334;2022-10-23T15:15:20;53.03;;;35.60;;
28174;SDS011;59417;44.788;10.334;2022-10-23T15:17:47;44.78;;;32.17;;
28174;SDS011;59417;44.788;10.334;2022-10-23T15:20:12;49.13;;;33.10;;
28174;SDS011;59417;44.788;10.334;2022-10-23T15:22:38;49.17;;;33.05;;
28174;SDS011;59417;44.788;10.334;2022-10-23T15:25:04;49.63;;;32.75;;
28174;SDS011;59417;44.788;10.334;2022-10-23T15:27:30;57.55;;;35.58;;
28174;SDS011;59417;44.788;10.334;2022-10-23T15:29:56;56.60;;;36.42;;
28174;SDS011;59417;44.788;10.334;2022-10-23T15:32:22;57.72;;;34.15;;
28174;SDS011;59417;44.788;10.334;2022-10-23T15:34:48;50.33;;;33.90;;
28174;SDS011;59417;44.788;10.334;2022-10-23T15:37:16;53.30;;;34.97;;
28174;SDS011;59417;44.788;10.334;2022-10-23T15:39:44;50.45;;;33.33;;
28174;SDS011;59417;44.788;10.334;2022-10-23T15:42:10;47.78;;;34.10;;
28174;SDS011;59417;44.788;10.334;2022-10-23T15:44:36;55.42;;;35.03;;
28174;SDS011;59417;44.788;10.334;2022-10-23T15:47:05;51.53;;;34.63;;
28174;SDS011;59417;44.788;10.334;2022-10-23T15:49:31;51.50;;;34.00;;
28174;SDS011;59417;44.788;10.334;2022-10-23T15:51:57;55.15;;;33.25;;
28174;SDS011;59417;44.788;10.334;2022-10-23T15:54:23;62.08;;;37.63;;
28174;SDS011;59417;44.788;10.334;2022-10-23T15:56:50;48.50;;;34.22;;
28174;SDS011;59417;44.788;10.334;2022-10-23T15:59:18;51.65;;;35.85;;
28174;SDS011;59417;44.788;10.334;2022-10-23T16:01:45;51.85;;;35.63;;
28174;SDS011;59417;44.788;10.334;2022-10-23T16:04:12;56.67;;;37.20;;
28174;SDS011;59417;44.788;10.334;2022-10-23T16:06:38;59.67;;;37.40;;
28174;SDS011;59417;44.788;10.334;2022-10-23T16:09:03;52.63;;;35.88;;
28174;SDS011;59417;44.788;10.334;2022-10-23T16:11:30;52.55;;;34.13;;
28174;SDS011;59417;44.788;10.334;2022-10-23T16:13:59;54.25;;;34.40;;
28174;SDS011;59417;44.788;10.334;2022-10-23T16:16:29;56.08;;;35.10;;
28174;SDS011;59417;44.788;10.334;2022-10-23T16:18:59;55.95;;;34.25;;
28174;SDS011;59417;44.788;10.334;2022-10-23T16:21:27;58.13;;;36.22;;
28174;SDS011;59417;44.788;10.334;2022-10-23T16:23:56;49.03;;;33.88;;
28174;SDS011;59417;44.788;10.334;2022-10-23T16:26:23;54.35;;;34.35;;
28174;SDS011;59417;44.788;10.334;2022-10-23T16:28:53;54.85;;;34.20;;
28174;SDS011;59417;44.788;10.334;2022-10-23T16:31:20;47.58;;;33.47;;
28174;SDS011;59417;44.788;10.334;2022-10-23T16:33:49;50.08;;;34.25;;
28174;SDS011;59417;44.788;10.334;2022-10-23T16:36:16;53.65;;;34.35;;
28174;SDS011;59417;44.788;10.334;2022-10-23T16:39:01;56.38;;;37.33;;
28174;SDS011;59417;44.788;10.334;2022-10-23T16:41:46;57.25;;;34.58;;
28174;SDS011;59417;44.788;10.334;2022-10-23T16:44:17;53.72;;;35.38;;
28174;SDS011;59417;44.788;10.334;2022-10-23T16:46:57;56.85;;;37.83;;
28174;SDS011;59417;44.788;10.334;2022-10-23T16:49:22;52.05;;;35.22;;
28174;SDS011;59417;44.788;10.334;2022-10-23T16:51:48;55.33;;;36.10;;
28174;SDS011;59417;44.788;10.334;2022-10-23T16:54:14;57.40;;;40.60;;
28174;SDS011;59417;44.788;10.334;2022-10-23T16:56:39;53.53;;;37.80;;
28174;SDS011;59417;44.788;10.334;2022-10-23T16:59:05;56.47;;;38.40;;
28174;SDS011;59417;44.788;10.334;2022-10-23T17:01:31;56.35;;;36.00;;
28174;SDS011;59417;44.788;10.334;2022-10-23T17:03:57;55.80;;;36.17;;